Time;durP1;ratioP1;P1;durP2;ratioP2;P2;SDS_P1;SDS_P2;PMS_P1;PMS_P2;Temp;Humidity;BMP_temperature;BMP_pressure;BME280_temperature;BME280_humidity;BME280_pressure;Samples;Min_cycle;Max_cycle;Signal;HPM_P1;HPM_P2
2020/01/15 00:00:04;;;;;;;6.699999;3.75;;;;;;;1.23;54.58105;95403.92;;;;
2020/01/15 00:01:04;;;;;;;6.699999;3.75;;;;;;;1.23;54.58105;95403.92;;;;
2020/01/15 00:02:05;;;;;;;6.699999;3.75;;;;;;;1.23;54.58105;95403.92;;;;
2020/01/15 00:03:06;;;;;;;6.699999;3.75;;;;;;;1.23;54.58105;95403.92;;;;
2020/01/15 00:04:07;;;;;;;6.699999;3.75;;;;;;;1.23;54.58105;95403.92;;;;
2020/01/15 00:05:07;;;;;;;6.699999;3.75;;;;;;;1.23;54.58105;95403.92;;;;
2020/01/15 00:06:07;;;;;;;6.699999;3.75;;;;;;;1.23;54.58105;95403.92;;;;
2020/01/15 00:07:08;;;;;;;6.699999;3.75;;;;;;;1.23;54.58105;95403.92;;;;
2020/01/15 00:08:08;;;;;;;8.150002;3.85;;;;;;;1.03;54.17676;95396.97;;;;
2020/01/15 00:09:09;;;;;;;8.150002;3.85;;;;;;;1.03;54.17676;95396.97;;;;
2020/01/15 00:10:09;;;;;;;8.150002;3.85;;;;;;;1.03;54.17676;95396.97;;;;
2020/01/15 00:11:10;;;;;;;8.650001;3.9;;;;;;;1.03;54.94531;95389.9;;;;
2020/01/15 00:12:10;;;;;;;8.650001;3.9;;;;;;;1.03;54.94531;95389.9;;;;
2020/01/15 00:13:11;;;;;;;8.650001;3.9;;;;;;;1.03;54.94531;95389.9;;;;
2020/01/15 00:14:11;;;;;;;8.650001;3.9;;;;;;;1.03;54.94531;95389.9;;;;
2020/01/15 00:15:12;;;;;;;8.650001;3.9;;;;;;;1.03;54.94531;95389.9;;;;
2020/01/15 00:16:12;;;;;;;8.650001;3.9;;;;;;;1.03;54.94531;95389.9;;;;
2020/01/15 00:17:13;;;;;;;8.650001;3.9;;;;;;;1.03;54.94531;95389.9;;;;
2020/01/15 00:18:13;;;;;;;8.650001;3.9;;;;;;;1.03;54.94531;95389.9;;;;
2020/01/15 00:19:13;;;;;;;8.650001;3.9;;;;;;;1.03;54.94531;95389.9;;;;
2020/01/15 00:20:14;;;;;;;8.650001;3.9;;;;;;;1.03;54.94531;95389.9;;;;
2020/01/15 00:21:14;;;;;;;5.500001;3.5;;;;;;;0.79;54.53516;95396.7;;;;
2020/01/15 00:22:15;;;;;;;5.500001;3.5;;;;;;;0.79;54.53516;95396.7;;;;
2020/01/15 00:23:16;;;;;;;5.500001;3.5;;;;;;;0.79;54.53516;95396.7;;;;
2020/01/15 00:24:17;;;;;;;6.350001;3.25;;;;;;;0.77;55.35449;95393.28;;;;
2020/01/15 00:30:29;;;;;;;6.350001;3.25;;;;;;;0.77;55.35449;95393.28;;;;
2020/01/15 00:31:30;;;;;;;6.350001;3.25;;;;;;;0.77;55.35449;95393.28;;;;
2020/01/15 00:32:30;;;;;;;6.350001;3.25;;;;;;;0.77;55.35449;95393.28;;;;
2020/01/15 00:33:31;;;;;;;6.350001;3.25;;;;;;;0.77;55.35449;95393.28;;;;
2020/01/15 00:34:31;;;;;;;6.45;3.299999;;;;;;;0.54;54.95508;95397.29;;;;
2020/01/15 00:35:32;;;;;;;6.45;3.299999;;;;;;;0.54;54.95508;95397.29;;;;
2020/01/15 00:36:32;;;;;;;6.45;3.299999;;;;;;;0.54;54.95508;95397.29;;;;
2020/01/15 00:37:33;;;;;;;6.55;3.55;;;;;;;0.52;55.73047;95401.97;;;;
2020/01/15 00:38:33;;;;;;;6.55;3.55;;;;;;;0.52;55.73047;95401.97;;;;
2020/01/15 00:39:33;;;;;;;6.55;3.55;;;;;;;0.52;55.73047;95401.97;;;;
2020/01/15 00:40:34;;;;;;;6.55;3.55;;;;;;;0.52;55.73047;95401.97;;;;
2020/01/15 00:41:34;;;;;;;6.55;3.55;;;;;;;0.52;55.73047;95401.97;;;;
2020/01/15 00:42:35;;;;;;;6.55;3.55;;;;;;;0.52;55.73047;95401.97;;;;
2020/01/15 00:43:35;;;;;;;6.55;3.55;;;;;;;0.52;55.73047;95401.97;;;;
2020/01/15 00:44:36;;;;;;;6.55;3.55;;;;;;;0.52;55.73047;95401.97;;;;
2020/01/15 00:45:36;;;;;;;6.55;3.55;;;;;;;0.52;55.73047;95401.97;;;;
2020/01/15 00:46:37;;;;;;;6.55;3.55;;;;;;;0.52;55.73047;95401.97;;;;
2020/01/15 00:47:37;;;;;;;6.55;3.55;;;;;;;0.52;55.73047;95401.97;;;;
2020/01/15 00:48:38;;;;;;;6.1;3.3;;;;;;;0.29;55.3125;95393.48;;;;
2020/01/15 00:49:38;;;;;;;6.1;3.3;;;;;;;0.29;55.3125;95393.48;;;;
2020/01/15 00:50:38;;;;;;;5.849999;3.4;;;;;;;0.28;56.15137;95394.92;;;;
2020/01/15 00:51:39;;;;;;;5.849999;3.4;;;;;;;0.28;56.15137;95394.92;;;;
2020/01/15 00:52:42;;;;;;;5.849999;3.4;;;;;;;0.28;56.15137;95394.92;;;;
2020/01/15 00:53:43;;;;;;;5.849999;3.4;;;;;;;0.28;56.15137;95394.92;;;;
2020/01/15 00:54:43;;;;;;;5.849999;3.4;;;;;;;0.28;56.15137;95394.92;;;;
2020/01/15 00:55:44;;;;;;;5.849999;3.4;;;;;;;0.28;56.15137;95394.92;;;;
2020/01/15 00:56:44;;;;;;;5.849999;3.4;;;;;;;0.28;56.15137;95394.92;;;;
2020/01/15 00:57:45;;;;;;;5.849999;3.4;;;;;;;0.28;56.15137;95394.92;;;;
2020/01/15 00:58:45;;;;;;;5.849999;3.4;;;;;;;0.28;56.15137;95394.92;;;;
2020/01/15 00:59:46;;;;;;;5.849999;3.4;;;;;;;0.28;56.15137;95394.92;;;;
2020/01/15 01:00:46;;;;;;;5.849999;3.4;;;;;;;0.28;56.15137;95394.92;;;;
2020/01/15 01:01:53;;;;;;;4.65;2.8;;;;;;;0.07;55.77637;95388.09;;;;
2020/01/15 01:03:26;;;;;;;4.65;2.8;;;;;;;0.07;55.77637;95388.09;;;;
2020/01/15 01:04:28;;;;;;;5.149999;3.2;;;;;;;0.06;56.64746;95386.35;;;;
2020/01/15 01:05:28;;;;;;;5.149999;3.2;;;;;;;0.06;56.64746;95386.35;;;;
2020/01/15 01:06:31;;;;;;;5.149999;3.2;;;;;;;0.06;56.64746;95386.35;;;;
2020/01/15 01:07:39;;;;;;;5.149999;3.2;;;;;;;0.06;56.64746;95386.35;;;;
2020/01/15 01:08:46;;;;;;;5.149999;3.2;;;;;;;0.06;56.64746;95386.35;;;;
2020/01/15 01:09:47;;;;;;;5.149999;3.2;;;;;;;0.06;56.64746;95386.35;;;;
2020/01/15 01:11:04;;;;;;;5.149999;3.2;;;;;;;0.06;56.64746;95386.35;;;;
2020/01/15 01:17:21;;;;;;;5.849999;2.95;;;;;;;-0.13;57.02051;95403.55;;;;
2020/01/15 01:18:32;;;;;;;5.849999;2.95;;;;;;;-0.13;57.02051;95403.55;;;;
2020/01/15 01:19:33;;;;;;;5.849999;2.95;;;;;;;-0.13;57.02051;95403.55;;;;
2020/01/15 01:20:33;;;;;;;5.849999;2.95;;;;;;;-0.13;57.02051;95403.55;;;;
2020/01/15 01:21:33;;;;;;;5.849999;2.95;;;;;;;-0.13;57.02051;95403.55;;;;
2020/01/15 01:22:34;;;;;;;5.849999;2.95;;;;;;;-0.13;57.02051;95403.55;;;;
2020/01/15 01:23:34;;;;;;;5.849999;2.95;;;;;;;-0.13;57.02051;95403.55;;;;
2020/01/15 01:24:35;;;;;;;5.849999;2.95;;;;;;;-0.13;57.02051;95403.55;;;;
2020/01/15 01:25:35;;;;;;;5.849999;2.95;;;;;;;-0.13;57.02051;95403.55;;;;
2020/01/15 01:26:36;;;;;;;5.849999;2.95;;;;;;;-0.13;57.02051;95403.55;;;;
2020/01/15 01:27:36;;;;;;;3.85;2.4;;;;;;;-0.33;56.61621;95401.33;;;;
2020/01/15 01:28:37;;;;;;;3.85;2.4;;;;;;;-0.33;56.61621;95401.33;;;;
2020/01/15 01:29:37;;;;;;;3.85;2.4;;;;;;;-0.33;56.61621;95401.33;;;;
2020/01/15 01:30:38;;;;;;;4.6;2.7;;;;;;;-0.32;57.43555;95398.58;;;;
2020/01/15 01:31:45;;;;;;;4.6;2.7;;;;;;;-0.32;57.43555;95398.58;;;;
2020/01/15 01:32:46;;;;;;;4.6;2.7;;;;;;;-0.32;57.43555;95398.58;;;;
2020/01/15 01:33:46;;;;;;;4.6;2.7;;;;;;;-0.32;57.43555;95398.58;;;;
2020/01/15 01:34:47;;;;;;;4.6;2.7;;;;;;;-0.32;57.43555;95398.58;;;;
2020/01/15 01:35:47;;;;;;;4.6;2.7;;;;;;;-0.32;57.43555;95398.58;;;;
2020/01/15 01:36:48;;;;;;;4.6;2.7;;;;;;;-0.32;57.43555;95398.58;;;;
2020/01/15 01:37:48;;;;;;;4.6;2.7;;;;;;;-0.32;57.43555;95398.58;;;;
2020/01/15 01:38:50;;;;;;;4.6;2.7;;;;;;;-0.32;57.43555;95398.58;;;;
2020/01/15 01:39:50;;;;;;;4.6;2.7;;;;;;;-0.32;57.43555;95398.58;;;;
2020/01/15 01:40:50;;;;;;;3;2.2;;;;;;;-0.47;57.02734;95387.41;;;;
2020/01/15 01:41:51;;;;;;;3;2.2;;;;;;;-0.47;57.02734;95387.41;;;;
2020/01/15 01:42:51;;;;;;;3;2.2;;;;;;;-0.47;57.02734;95387.41;;;;
2020/01/15 01:44:04;;;;;;;3;2.5;;;;;;;-0.45;57.8457;95388.57;;;;
2020/01/15 01:45:04;;;;;;;3;2.5;;;;;;;-0.45;57.8457;95388.57;;;;
2020/01/15 01:46:07;;;;;;;3;2.5;;;;;;;-0.45;57.8457;95388.57;;;;
2020/01/15 01:47:07;;;;;;;3;2.5;;;;;;;-0.45;57.8457;95388.57;;;;
2020/01/15 01:48:08;;;;;;;3;2.5;;;;;;;-0.45;57.8457;95388.57;;;;
2020/01/15 01:49:08;;;;;;;3;2.5;;;;;;;-0.45;57.8457;95388.57;;;;
2020/01/15 01:50:09;;;;;;;3;2.5;;;;;;;-0.45;57.8457;95388.57;;;;
2020/01/15 01:51:09;;;;;;;3;2.5;;;;;;;-0.45;57.8457;95388.57;;;;
2020/01/15 01:52:10;;;;;;;3;2.5;;;;;;;-0.45;57.8457;95388.57;;;;
2020/01/15 01:53:10;;;;;;;3;2.5;;;;;;;-0.45;57.8457;95388.57;;;;
2020/01/15 01:54:11;;;;;;;3.55;2.35;;;;;;;-0.57;57.31738;95389.81;;;;
2020/01/15 01:55:11;;;;;;;3.55;2.35;;;;;;;-0.57;57.31738;95389.81;;;;
2020/01/15 01:56:12;;;;;;;3.55;2.35;;;;;;;-0.57;57.31738;95389.81;;;;
2020/01/15 01:57:12;;;;;;;3.55;2.35;;;;;;;-0.57;57.31738;95389.81;;;;
2020/01/15 01:58:12;;;;;;;3.55;2.35;;;;;;;-0.57;57.31738;95389.81;;;;
2020/01/15 01:59:13;;;;;;;3.55;2.35;;;;;;;-0.57;57.31738;95389.81;;;;
2020/01/15 02:00:13;;;;;;;3.55;2.35;;;;;;;-0.57;57.31738;95389.81;;;;
2020/01/15 02:01:14;;;;;;;3.55;2.35;;;;;;;-0.57;57.31738;95389.81;;;;
2020/01/15 02:02:14;;;;;;;3.55;2.35;;;;;;;-0.57;57.31738;95389.81;;;;
2020/01/15 02:03:17;;;;;;;3.55;2.35;;;;;;;-0.57;57.31738;95389.81;;;;
2020/01/15 02:04:18;;;;;;;3.55;2.35;;;;;;;-0.57;57.31738;95389.81;;;;
2020/01/15 02:05:32;;;;;;;4.849999;2.5;;;;;;;-0.64;57.17188;95389.23;;;;
2020/01/15 02:06:34;;;;;;;4.849999;2.5;;;;;;;-0.64;57.17188;95389.23;;;;
2020/01/15 02:07:37;;;;;;;4.849999;2.5;;;;;;;-0.64;57.17188;95389.23;;;;
2020/01/15 02:08:37;;;;;;;4.849999;2.5;;;;;;;-0.64;57.17188;95389.23;;;;
2020/01/15 02:09:38;;;;;;;4.849999;2.5;;;;;;;-0.64;57.17188;95389.23;;;;
2020/01/15 02:10:38;;;;;;;4.849999;2.5;;;;;;;-0.64;57.17188;95389.23;;;;
2020/01/15 02:11:42;;;;;;;4.849999;2.5;;;;;;;-0.64;57.17188;95389.23;;;;
2020/01/15 02:12:42;;;;;;;4.849999;2.5;;;;;;;-0.64;57.17188;95389.23;;;;
2020/01/15 02:13:53;;;;;;;4.849999;2.5;;;;;;;-0.64;57.17188;95389.23;;;;
2020/01/15 02:14:54;;;;;;;4.849999;2.5;;;;;;;-0.64;57.17188;95389.23;;;;
2020/01/15 02:15:54;;;;;;;3.35;2.25;;;;;;;-0.75;57.04102;95381.19;;;;
2020/01/15 02:16:55;;;;;;;3.35;2.25;;;;;;;-0.75;57.04102;95381.19;;;;
2020/01/15 02:17:55;;;;;;;3.35;2.25;;;;;;;-0.75;57.04102;95381.19;;;;
2020/01/15 02:18:57;;;;;;;5.400001;2.299999;;;;;;;-0.71;57.875;95380.77;;;;
2020/01/15 02:19:57;;;;;;;5.400001;2.299999;;;;;;;-0.71;57.875;95380.77;;;;
2020/01/15 02:20:57;;;;;;;5.400001;2.299999;;;;;;;-0.71;57.875;95380.77;;;;
2020/01/15 02:21:58;;;;;;;5.400001;2.299999;;;;;;;-0.71;57.875;95380.77;;;;
2020/01/15 02:22:59;;;;;;;5.400001;2.299999;;;;;;;-0.71;57.875;95380.77;;;;
2020/01/15 02:24:00;;;;;;;5.400001;2.299999;;;;;;;-0.71;57.875;95380.77;;;;
2020/01/15 02:25:01;;;;;;;5.400001;2.299999;;;;;;;-0.71;57.875;95380.77;;;;
2020/01/15 02:26:01;;;;;;;5.400001;2.299999;;;;;;;-0.71;57.875;95380.77;;;;
2020/01/15 02:27:02;;;;;;;5.400001;2.299999;;;;;;;-0.71;57.875;95380.77;;;;
2020/01/15 02:28:03;;;;;;;5.400001;2.299999;;;;;;;-0.71;57.875;95380.77;;;;
2020/01/15 02:29:03;;;;;;;3.6;2.3;;;;;;;-0.76;57.50098;95364.54;;;;
2020/01/15 02:30:04;;;;;;;3.6;2.3;;;;;;;-0.76;57.50098;95364.54;;;;
2020/01/15 02:31:04;;;;;;;3.6;2.3;;;;;;;-0.76;57.50098;95364.54;;;;
2020/01/15 02:32:04;;;;;;;3.6;2.3;;;;;;;-0.76;57.50098;95364.54;;;;
2020/01/15 02:33:05;;;;;;;3.6;2.3;;;;;;;-0.76;57.50098;95364.54;;;;
2020/01/15 02:34:06;;;;;;;3.6;2.3;;;;;;;-0.76;57.50098;95364.54;;;;
2020/01/15 02:35:06;;;;;;;3.6;2.3;;;;;;;-0.76;57.50098;95364.54;;;;
2020/01/15 02:36:08;;;;;;;3.6;2.3;;;;;;;-0.76;57.50098;95364.54;;;;
2020/01/15 02:37:08;;;;;;;3.6;2.3;;;;;;;-0.76;57.50098;95364.54;;;;
2020/01/15 02:38:08;;;;;;;3.6;2.3;;;;;;;-0.76;57.50098;95364.54;;;;
2020/01/15 02:39:09;;;;;;;3.6;2.3;;;;;;;-0.76;57.50098;95364.54;;;;
2020/01/15 02:40:09;;;;;;;3.65;2.25;;;;;;;-0.79;57.38281;95372.31;;;;
2020/01/15 02:41:10;;;;;;;3.65;2.25;;;;;;;-0.79;57.38281;95372.31;;;;
2020/01/15 02:42:10;;;;;;;3.65;2.25;;;;;;;-0.79;57.38281;95372.31;;;;
2020/01/15 02:43:11;;;;;;;3.65;2.25;;;;;;;-0.79;57.38281;95372.31;;;;
2020/01/15 02:44:11;;;;;;;3.65;2.25;;;;;;;-0.79;57.38281;95372.31;;;;
2020/01/15 02:45:11;;;;;;;3.65;2.25;;;;;;;-0.79;57.38281;95372.31;;;;
2020/01/15 02:46:12;;;;;;;3.65;2.25;;;;;;;-0.79;57.38281;95372.31;;;;
2020/01/15 02:47:12;;;;;;;3.65;2.25;;;;;;;-0.79;57.38281;95372.31;;;;
2020/01/15 02:48:13;;;;;;;3.65;2.25;;;;;;;-0.79;57.38281;95372.31;;;;
2020/01/15 02:49:13;;;;;;;3.65;2.25;;;;;;;-0.79;57.38281;95372.31;;;;
2020/01/15 02:50:14;;;;;;;5;2.3;;;;;;;-0.89;57.31543;95355.76;;;;
2020/01/15 02:51:14;;;;;;;5;2.3;;;;;;;-0.89;57.31543;95355.76;;;;
2020/01/15 02:52:14;;;;;;;5;2.3;;;;;;;-0.89;57.31543;95355.76;;;;
2020/01/15 02:53:15;;;;;;;5;2.3;;;;;;;-0.89;57.31543;95355.76;;;;
2020/01/15 02:54:15;;;;;;;5;2.3;;;;;;;-0.89;57.31543;95355.76;;;;
2020/01/15 02:55:16;;;;;;;5;2.3;;;;;;;-0.89;57.31543;95355.76;;;;
2020/01/15 02:56:16;;;;;;;5;2.3;;;;;;;-0.89;57.31543;95355.76;;;;
2020/01/15 02:57:17;;;;;;;5;2.3;;;;;;;-0.89;57.31543;95355.76;;;;
2020/01/15 02:58:17;;;;;;;5;2.3;;;;;;;-0.89;57.31543;95355.76;;;;
2020/01/15 02:59:18;;;;;;;5;2.3;;;;;;;-0.89;57.31543;95355.76;;;;
2020/01/15 03:00:18;;;;;;;5;2.3;;;;;;;-0.89;57.31543;95355.76;;;;
2020/01/15 03:01:19;;;;;;;3.3;2.299999;;;;;;;-0.94;57.34082;95364.28;;;;
2020/01/15 03:02:19;;;;;;;3.3;2.299999;;;;;;;-0.94;57.34082;95364.28;;;;
2020/01/15 03:03:20;;;;;;;3.3;2.299999;;;;;;;-0.94;57.34082;95364.28;;;;
2020/01/15 03:04:20;;;;;;;3.3;2.299999;;;;;;;-0.94;57.34082;95364.28;;;;
2020/01/15 03:05:21;;;;;;;3.3;2.299999;;;;;;;-0.94;57.34082;95364.28;;;;
2020/01/15 03:11:36;;;;;;;3;2.15;;;;;;;-1.05;57.37793;95374.78;;;;
2020/01/15 03:12:36;;;;;;;3;2.15;;;;;;;-1.05;57.37793;95374.78;;;;
2020/01/15 03:13:37;;;;;;;3;2.15;;;;;;;-1.05;57.37793;95374.78;;;;
2020/01/15 03:14:37;;;;;;;3;2.15;;;;;;;-1.05;57.37793;95374.78;;;;
2020/01/15 03:15:38;;;;;;;3;2.15;;;;;;;-1.05;57.37793;95374.78;;;;
2020/01/15 03:16:38;;;;;;;3;2.15;;;;;;;-1.05;57.37793;95374.78;;;;
2020/01/15 03:17:39;;;;;;;3;2.15;;;;;;;-1.05;57.37793;95374.78;;;;
2020/01/15 03:18:39;;;;;;;3;2.15;;;;;;;-1.05;57.37793;95374.78;;;;
2020/01/15 03:19:40;;;;;;;3;2.15;;;;;;;-1.05;57.37793;95374.78;;;;
2020/01/15 03:20:40;;;;;;;3;2.15;;;;;;;-1.05;57.37793;95374.78;;;;
2020/01/15 03:21:41;;;;;;;4.85;2.1;;;;;;;-1.1;57.50781;95384.13;;;;
2020/01/15 03:22:41;;;;;;;4.85;2.1;;;;;;;-1.1;57.50781;95384.13;;;;
2020/01/15 03:23:42;;;;;;;4.85;2.1;;;;;;;-1.1;57.50781;95384.13;;;;
2020/01/15 03:24:42;;;;;;;4.85;2.1;;;;;;;-1.1;57.50781;95384.13;;;;
2020/01/15 03:25:42;;;;;;;4.85;2.1;;;;;;;-1.1;57.50781;95384.13;;;;
2020/01/15 03:26:43;;;;;;;4.85;2.1;;;;;;;-1.1;57.50781;95384.13;;;;
2020/01/15 03:27:43;;;;;;;4.85;2.1;;;;;;;-1.1;57.50781;95384.13;;;;
2020/01/15 03:28:44;;;;;;;4.85;2.1;;;;;;;-1.1;57.50781;95384.13;;;;
2020/01/15 03:29:44;;;;;;;4.85;2.1;;;;;;;-1.1;57.50781;95384.13;;;;
2020/01/15 03:30:45;;;;;;;4.85;2.1;;;;;;;-1.1;57.50781;95384.13;;;;
2020/01/15 03:31:45;;;;;;;4.85;2.1;;;;;;;-1.1;57.50781;95384.13;;;;
2020/01/15 03:32:45;;;;;;;2.9;1.95;;;;;;;-1.21;57.56641;95381.78;;;;
2020/01/15 03:33:46;;;;;;;2.9;1.95;;;;;;;-1.21;57.56641;95381.78;;;;
2020/01/15 03:34:46;;;;;;;2.9;1.95;;;;;;;-1.21;57.56641;95381.78;;;;
2020/01/15 03:35:47;;;;;;;2.9;1.95;;;;;;;-1.21;57.56641;95381.78;;;;
2020/01/15 03:36:47;;;;;;;2.9;1.95;;;;;;;-1.21;57.56641;95381.78;;;;
2020/01/15 03:37:48;;;;;;;2.9;1.95;;;;;;;-1.21;57.56641;95381.78;;;;
2020/01/15 03:38:48;;;;;;;2.9;1.95;;;;;;;-1.21;57.56641;95381.78;;;;
2020/01/15 03:39:48;;;;;;;2.9;1.95;;;;;;;-1.21;57.56641;95381.78;;;;
2020/01/15 03:40:49;;;;;;;2.9;1.95;;;;;;;-1.21;57.56641;95381.78;;;;
2020/01/15 03:41:49;;;;;;;2.9;1.95;;;;;;;-1.21;57.56641;95381.78;;;;
2020/01/15 03:42:50;;;;;;;2.7;1.7;;;;;;;-1.23;57.79297;95388.16;;;;
2020/01/15 03:43:53;;;;;;;2.7;1.7;;;;;;;-1.23;57.79297;95388.16;;;;
2020/01/15 03:44:55;;;;;;;2.7;1.7;;;;;;;-1.23;57.79297;95388.16;;;;
2020/01/15 03:45:56;;;;;;;2.7;1.7;;;;;;;-1.23;57.79297;95388.16;;;;
2020/01/15 03:46:56;;;;;;;2.7;1.7;;;;;;;-1.23;57.79297;95388.16;;;;
2020/01/15 03:48:00;;;;;;;2.7;1.7;;;;;;;-1.23;57.79297;95388.16;;;;
2020/01/15 03:49:01;;;;;;;2.7;1.7;;;;;;;-1.23;57.79297;95388.16;;;;
2020/01/15 03:50:01;;;;;;;2.7;1.7;;;;;;;-1.23;57.79297;95388.16;;;;
2020/01/15 03:51:02;;;;;;;2.7;1.7;;;;;;;-1.23;57.79297;95388.16;;;;
2020/01/15 03:52:03;;;;;;;2.7;1.7;;;;;;;-1.23;57.79297;95388.16;;;;
2020/01/15 03:53:04;;;;;;;2.7;1.7;;;;;;;-1.23;57.79297;95388.16;;;;
2020/01/15 03:54:04;;;;;;;4.800001;2.1;;;;;;;-1.34;57.85156;95382.25;;;;
2020/01/15 03:55:05;;;;;;;4.800001;2.1;;;;;;;-1.34;57.85156;95382.25;;;;
2020/01/15 03:56:05;;;;;;;4.800001;2.1;;;;;;;-1.34;57.85156;95382.25;;;;
2020/01/15 03:57:06;;;;;;;4.800001;2.1;;;;;;;-1.34;57.85156;95382.25;;;;
2020/01/15 03:58:06;;;;;;;4.800001;2.1;;;;;;;-1.34;57.85156;95382.25;;;;
2020/01/15 03:59:07;;;;;;;4.800001;2.1;;;;;;;-1.34;57.85156;95382.25;;;;
2020/01/15 04:00:07;;;;;;;4.800001;2.1;;;;;;;-1.34;57.85156;95382.25;;;;
2020/01/15 04:01:10;;;;;;;4.800001;2.1;;;;;;;-1.34;57.85156;95382.25;;;;
2020/01/15 04:02:10;;;;;;;4.800001;2.1;;;;;;;-1.34;57.85156;95382.25;;;;
2020/01/15 04:03:11;;;;;;;4.800001;2.1;;;;;;;-1.34;57.85156;95382.25;;;;
2020/01/15 04:04:11;;;;;;;2.6;1.9;;;;;;;-1.39;57.93848;95381.98;;;;
2020/01/15 04:05:12;;;;;;;2.6;1.9;;;;;;;-1.39;57.93848;95381.98;;;;
2020/01/15 04:06:12;;;;;;;2.6;1.9;;;;;;;-1.39;57.93848;95381.98;;;;
2020/01/15 04:07:13;;;;;;;2.6;1.9;;;;;;;-1.39;57.93848;95381.98;;;;
2020/01/15 04:08:13;;;;;;;2.6;1.9;;;;;;;-1.39;57.93848;95381.98;;;;
2020/01/15 04:09:13;;;;;;;2.6;1.9;;;;;;;-1.39;57.93848;95381.98;;;;
2020/01/15 04:10:16;;;;;;;2.6;1.9;;;;;;;-1.39;57.93848;95381.98;;;;
2020/01/15 04:11:17;;;;;;;2.6;1.9;;;;;;;-1.39;57.93848;95381.98;;;;
2020/01/15 04:12:17;;;;;;;2.6;1.9;;;;;;;-1.39;57.93848;95381.98;;;;
2020/01/15 04:13:18;;;;;;;2.6;1.9;;;;;;;-1.39;57.93848;95381.98;;;;
2020/01/15 04:14:18;;;;;;;2.6;1.9;;;;;;;-1.39;57.93848;95381.98;;;;
2020/01/15 04:15:19;;;;;;;3.5;2.05;;;;;;;-1.52;58.04688;95378.88;;;;
2020/01/15 04:16:19;;;;;;;3.5;2.05;;;;;;;-1.52;58.04688;95378.88;;;;
2020/01/15 04:17:20;;;;;;;3.5;2.05;;;;;;;-1.52;58.04688;95378.88;;;;
2020/01/15 04:18:21;;;;;;;3.5;2.05;;;;;;;-1.52;58.04688;95378.88;;;;
2020/01/15 04:19:21;;;;;;;3.5;2.05;;;;;;;-1.52;58.04688;95378.88;;;;
2020/01/15 04:20:21;;;;;;;3.5;2.05;;;;;;;-1.52;58.04688;95378.88;;;;
2020/01/15 04:21:22;;;;;;;3.5;2.05;;;;;;;-1.52;58.04688;95378.88;;;;
2020/01/15 04:22:22;;;;;;;3.5;2.05;;;;;;;-1.52;58.04688;95378.88;;;;
2020/01/15 04:23:23;;;;;;;3.5;2.05;;;;;;;-1.52;58.04688;95378.88;;;;
2020/01/15 04:24:23;;;;;;;3.5;2.05;;;;;;;-1.52;58.04688;95378.88;;;;
2020/01/15 04:25:24;;;;;;;3.400001;2.05;;;;;;;-1.55;58.13574;95377.95;;;;
2020/01/15 04:26:24;;;;;;;3.400001;2.05;;;;;;;-1.55;58.13574;95377.95;;;;
2020/01/15 04:27:25;;;;;;;3.400001;2.05;;;;;;;-1.55;58.13574;95377.95;;;;
2020/01/15 04:28:25;;;;;;;3.400001;2.05;;;;;;;-1.55;58.13574;95377.95;;;;
2020/01/15 04:29:26;;;;;;;3.400001;2.05;;;;;;;-1.55;58.13574;95377.95;;;;
2020/01/15 04:30:26;;;;;;;3.400001;2.05;;;;;;;-1.55;58.13574;95377.95;;;;
2020/01/15 04:31:26;;;;;;;3.400001;2.05;;;;;;;-1.55;58.13574;95377.95;;;;
2020/01/15 04:32:27;;;;;;;3.400001;2.05;;;;;;;-1.55;58.13574;95377.95;;;;
2020/01/15 04:33:27;;;;;;;3.400001;2.05;;;;;;;-1.55;58.13574;95377.95;;;;
2020/01/15 04:34:28;;;;;;;3.400001;2.05;;;;;;;-1.55;58.13574;95377.95;;;;
2020/01/15 04:35:28;;;;;;;3.400001;2.05;;;;;;;-1.55;58.13574;95377.95;;;;
2020/01/15 04:36:29;;;;;;;3.35;2;;;;;;;-1.65;58.2168;95397.92;;;;
2020/01/15 04:37:29;;;;;;;3.35;2;;;;;;;-1.65;58.2168;95397.92;;;;
2020/01/15 04:38:29;;;;;;;3.35;2;;;;;;;-1.65;58.2168;95397.92;;;;
2020/01/15 04:39:30;;;;;;;3.35;2;;;;;;;-1.65;58.2168;95397.92;;;;
2020/01/15 04:40:30;;;;;;;3.35;2;;;;;;;-1.65;58.2168;95397.92;;;;
2020/01/15 04:41:31;;;;;;;3.35;2;;;;;;;-1.65;58.2168;95397.92;;;;
2020/01/15 04:42:32;;;;;;;3.35;2;;;;;;;-1.65;58.2168;95397.92;;;;
2020/01/15 04:43:32;;;;;;;3.35;2;;;;;;;-1.65;58.2168;95397.92;;;;
2020/01/15 04:44:33;;;;;;;3.35;2;;;;;;;-1.65;58.2168;95397.92;;;;
2020/01/15 04:45:33;;;;;;;3.35;2;;;;;;;-1.65;58.2168;95397.92;;;;
2020/01/15 04:46:34;;;;;;;3.35;2;;;;;;;-1.65;58.2168;95397.92;;;;
2020/01/15 04:47:34;;;;;;;3.35;2;;;;;;;-1.65;58.2168;95397.92;;;;
2020/01/15 04:48:35;;;;;;;3.35;2;;;;;;;-1.65;58.2168;95397.92;;;;
2020/01/15 04:49:35;;;;;;;3.35;2;;;;;;;-1.65;58.2168;95397.92;;;;
2020/01/15 04:50:35;;;;;;;3.35;2;;;;;;;-1.65;58.2168;95397.92;;;;
2020/01/15 04:51:36;;;;;;;3.35;2;;;;;;;-1.65;58.2168;95397.92;;;;
2020/01/15 04:52:36;;;;;;;3.35;2;;;;;;;-1.65;58.2168;95397.92;;;;
2020/01/15 04:53:37;;;;;;;3.35;2;;;;;;;-1.65;58.2168;95397.92;;;;
2020/01/15 04:54:37;;;;;;;3.35;2;;;;;;;-1.65;58.2168;95397.92;;;;
2020/01/15 04:55:38;;;;;;;3.35;2;;;;;;;-1.65;58.2168;95397.92;;;;
2020/01/15 04:56:38;;;;;;;3.35;2;;;;;;;-1.65;58.2168;95397.92;;;;
2020/01/15 04:57:39;;;;;;;6.15;2.6;;;;;;;-1.67;58.23535;95383.11;;;;
2020/01/15 04:58:39;;;;;;;6.15;2.6;;;;;;;-1.67;58.23535;95383.11;;;;
2020/01/15 04:59:40;;;;;;;6.15;2.6;;;;;;;-1.67;58.23535;95383.11;;;;
2020/01/15 05:00:41;;;;;;;6.15;2.6;;;;;;;-1.67;58.23535;95383.11;;;;
2020/01/15 05:01:42;;;;;;;6.15;2.6;;;;;;;-1.67;58.23535;95383.11;;;;
2020/01/15 05:02:42;;;;;;;6.15;2.6;;;;;;;-1.67;58.23535;95383.11;;;;
2020/01/15 05:03:42;;;;;;;6.15;2.6;;;;;;;-1.67;58.23535;95383.11;;;;
2020/01/15 05:04:43;;;;;;;6.15;2.6;;;;;;;-1.67;58.23535;95383.11;;;;
2020/01/15 05:05:43;;;;;;;6.15;2.6;;;;;;;-1.67;58.23535;95383.11;;;;
2020/01/15 05:06:44;;;;;;;6.15;2.6;;;;;;;-1.67;58.23535;95383.11;;;;
2020/01/15 05:07:44;;;;;;;6.15;2.6;;;;;;;-1.67;58.23535;95383.11;;;;
2020/01/15 05:08:45;;;;;;;9.050001;2.25;;;;;;;-1.71;58.5332;95396.74;;;;
2020/01/15 05:09:45;;;;;;;9.050001;2.25;;;;;;;-1.71;58.5332;95396.74;;;;
2020/01/15 05:10:46;;;;;;;9.050001;2.25;;;;;;;-1.71;58.5332;95396.74;;;;
2020/01/15 05:11:46;;;;;;;9.050001;2.25;;;;;;;-1.71;58.5332;95396.74;;;;
2020/01/15 05:12:46;;;;;;;9.050001;2.25;;;;;;;-1.71;58.5332;95396.74;;;;
2020/01/15 05:13:47;;;;;;;9.050001;2.25;;;;;;;-1.71;58.5332;95396.74;;;;
2020/01/15 05:14:47;;;;;;;9.050001;2.25;;;;;;;-1.71;58.5332;95396.74;;;;
2020/01/15 05:15:48;;;;;;;9.050001;2.25;;;;;;;-1.71;58.5332;95396.74;;;;
2020/01/15 05:16:48;;;;;;;9.050001;2.25;;;;;;;-1.71;58.5332;95396.74;;;;
2020/01/15 05:17:49;;;;;;;9.050001;2.25;;;;;;;-1.71;58.5332;95396.74;;;;
2020/01/15 05:18:49;;;;;;;7.050001;2.55;;;;;;;-1.78;58.61621;95394.92;;;;
2020/01/15 05:19:50;;;;;;;7.050001;2.55;;;;;;;-1.78;58.61621;95394.92;;;;
2020/01/15 05:20:50;;;;;;;7.050001;2.55;;;;;;;-1.78;58.61621;95394.92;;;;
2020/01/15 05:21:51;;;;;;;7.050001;2.55;;;;;;;-1.78;58.61621;95394.92;;;;
2020/01/15 05:22:51;;;;;;;7.050001;2.55;;;;;;;-1.78;58.61621;95394.92;;;;
2020/01/15 05:23:52;;;;;;;7.050001;2.55;;;;;;;-1.78;58.61621;95394.92;;;;
2020/01/15 05:24:52;;;;;;;7.050001;2.55;;;;;;;-1.78;58.61621;95394.92;;;;
2020/01/15 05:25:52;;;;;;;7.050001;2.55;;;;;;;-1.78;58.61621;95394.92;;;;
2020/01/15 05:26:53;;;;;;;7.050001;2.55;;;;;;;-1.78;58.61621;95394.92;;;;
2020/01/15 05:27:53;;;;;;;7.050001;2.55;;;;;;;-1.78;58.61621;95394.92;;;;
2020/01/15 05:28:54;;;;;;;7.050001;2.55;;;;;;;-1.78;58.61621;95394.92;;;;
2020/01/15 05:29:54;;;;;;;6.05;2.55;;;;;;;-1.78;58.74219;95397.56;;;;
2020/01/15 05:30:55;;;;;;;6.05;2.55;;;;;;;-1.78;58.74219;95397.56;;;;
2020/01/15 05:31:55;;;;;;;6.05;2.55;;;;;;;-1.78;58.74219;95397.56;;;;
2020/01/15 05:32:55;;;;;;;6.05;2.55;;;;;;;-1.78;58.74219;95397.56;;;;
2020/01/15 05:33:56;;;;;;;6.05;2.55;;;;;;;-1.78;58.74219;95397.56;;;;
2020/01/15 05:34:56;;;;;;;6.05;2.55;;;;;;;-1.78;58.74219;95397.56;;;;
2020/01/15 05:35:57;;;;;;;6.05;2.55;;;;;;;-1.78;58.74219;95397.56;;;;
2020/01/15 05:36:57;;;;;;;6.05;2.55;;;;;;;-1.78;58.74219;95397.56;;;;
2020/01/15 05:37:58;;;;;;;6.05;2.55;;;;;;;-1.78;58.74219;95397.56;;;;
2020/01/15 05:38:58;;;;;;;6.05;2.55;;;;;;;-1.78;58.74219;95397.56;;;;
2020/01/15 05:39:59;;;;;;;9.25;2.95;;;;;;;-1.83;58.91113;95380.88;;;;
2020/01/15 05:40:59;;;;;;;9.25;2.95;;;;;;;-1.83;58.91113;95380.88;;;;
2020/01/15 05:42:00;;;;;;;9.25;2.95;;;;;;;-1.83;58.91113;95380.88;;;;
2020/01/15 05:43:00;;;;;;;9.25;2.95;;;;;;;-1.83;58.91113;95380.88;;;;
2020/01/15 05:44:01;;;;;;;9.25;2.95;;;;;;;-1.83;58.91113;95380.88;;;;
2020/01/15 05:45:01;;;;;;;9.25;2.95;;;;;;;-1.83;58.91113;95380.88;;;;
2020/01/15 05:46:02;;;;;;;9.25;2.95;;;;;;;-1.83;58.91113;95380.88;;;;
2020/01/15 05:47:02;;;;;;;9.25;2.95;;;;;;;-1.83;58.91113;95380.88;;;;
2020/01/15 05:48:03;;;;;;;9.25;2.95;;;;;;;-1.83;58.91113;95380.88;;;;
2020/01/15 05:49:03;;;;;;;9.25;2.95;;;;;;;-1.83;58.91113;95380.88;;;;
2020/01/15 05:55:16;;;;;;;7.6;2.9;;;;;;;-1.8;59.02148;95388.95;;;;
2020/01/15 05:56:23;;;;;;;7.6;2.9;;;;;;;-1.8;59.02148;95388.95;;;;
2020/01/15 05:57:25;;;;;;;7.6;2.9;;;;;;;-1.8;59.02148;95388.95;;;;
2020/01/15 05:58:25;;;;;;;7.6;2.9;;;;;;;-1.8;59.02148;95388.95;;;;
2020/01/15 05:59:26;;;;;;;7.6;2.9;;;;;;;-1.8;59.02148;95388.95;;;;
2020/01/15 06:00:28;;;;;;;7.6;2.9;;;;;;;-1.8;59.02148;95388.95;;;;
2020/01/15 06:01:29;;;;;;;6;2.65;;;;;;;-1.88;59.07324;95369.89;;;;
2020/01/15 06:02:29;;;;;;;6;2.65;;;;;;;-1.88;59.07324;95369.89;;;;
2020/01/15 06:03:30;;;;;;;6;2.65;;;;;;;-1.88;59.07324;95369.89;;;;
2020/01/15 06:04:30;;;;;;;6;2.65;;;;;;;-1.88;59.07324;95369.89;;;;
2020/01/15 06:05:31;;;;;;;6;2.65;;;;;;;-1.88;59.07324;95369.89;;;;